Time;durP1;ratioP1;P1;durP2;ratioP2;P2;SDS_P1;SDS_P2;PMS_P1;PMS_P2;Temp;Humidity;BMP_temperature;BMP_pressure;BME280_temperature;BME280_humidity;BME280_pressure;Samples;Min_cycle;Max_cycle;Signal;HPM_P1;HPM_P2
2024/04/07 00:00:45;;;;;;;4.87;2.43;;;;;;;;;;4347495;32;317380;-78
2024/04/07 00:03:12;;;;;;;5.62;2.50;;;;;;;;;;4364307;32;317200;-78
2024/04/07 00:05:39;;;;;;;6.75;2.33;;;;;;;;;;4355481;32;317203;-78
2024/04/07 00:08:05;;;;;;;6.68;2.37;;;;;;;;;;4365584;32;317554;-78
2024/04/07 00:10:36;;;;;;;4.70;2.42;;;;;;;;;;4352941;32;398653;-78
2024/04/07 00:13:02;;;;;;;7.40;2.67;;;;;;;;;;4359319;32;317524;-79
2024/04/07 00:15:28;;;;;;;3.60;2.47;;;;;;;;;;4365475;32;317785;-79
2024/04/07 00:17:54;;;;;;;7.18;2.90;;;;;;;;;;4353698;32;317340;-79
2024/04/07 00:20:21;;;;;;;8.10;2.45;;;;;;;;;;4364473;32;317201;-79
2024/04/07 00:22:46;;;;;;;11.88;2.80;;;;;;;;;;4349024;32;317162;-79
2024/04/07 00:25:16;;;;;;;8.85;2.47;;;;;;;;;;4365364;32;318154;-79
2024/04/07 00:27:43;;;;;;;7.50;3.27;;;;;;;;;;4353816;32;340271;-79
2024/04/07 00:30:11;;;;;;;7.00;2.70;;;;;;;;;;4364118;32;317186;-79
2024/04/07 00:32:37;;;;;;;5.47;2.58;;;;;;;;;;4353898;32;317332;-79
2024/04/07 00:35:04;;;;;;;14.23;3.62;;;;;;;;;;4358722;32;317476;-78
2024/04/07 00:37:30;;;;;;;5.90;3.08;;;;;;;;;;4364786;32;318450;-78
2024/04/07 00:39:56;;;;;;;7.95;2.97;;;;;;;;;;4351708;32;374081;-78
2024/04/07 00:42:22;;;;;;;8.80;3.08;;;;;;;;;;4364641;32;316987;-78
2024/04/07 00:44:51;;;;;;;4.57;2.47;;;;;;;;;;4348036;32;317122;-78
2024/04/07 00:47:17;;;;;;;6.37;2.17;;;;;;;;;;4364931;32;317079;-78
2024/04/07 00:49:46;;;;;;;4.97;2.45;;;;;;;;;;4354096;32;337887;-78
2024/04/07 00:52:12;;;;;;;7.60;2.70;;;;;;;;;;4364531;32;317067;-78
2024/04/07 00:54:41;;;;;;;3.33;2.00;;;;;;;;;;4355184;32;317077;-78
2024/04/07 00:57:09;;;;;;;4.62;2.35;;;;;;;;;;4361745;32;317047;-78
2024/04/07 00:59:36;;;;;;;7.55;2.60;;;;;;;;;;4353745;32;317167;-78
2024/04/07 01:02:04;;;;;;;4.40;1.87;;;;;;;;;;4363672;32;346396;-78
2024/04/07 01:04:31;;;;;;;4.80;1.67;;;;;;;;;;4364883;32;317030;-78
2024/04/07 01:06:57;;;;;;;6.18;1.87;;;;;;;;;;4344649;32;418118;-78
2024/04/07 01:09:26;;;;;;;7.43;2.20;;;;;;;;;;4363464;32;316473;-78
2024/04/07 01:11:53;;;;;;;2.60;1.58;;;;;;;;;;4354455;32;317238;-78
2024/04/07 01:14:19;;;;;;;3.00;1.80;;;;;;;;;;4364633;32;317250;-78
2024/04/07 01:16:45;;;;;;;3.83;1.90;;;;;;;;;;4334515;32;316752;-78
2024/04/07 01:19:12;;;;;;;5.28;2.25;;;;;;;;;;4362764;32;316978;-78
2024/04/07 01:21:39;;;;;;;2.85;1.70;;;;;;;;;;4353347;32;316978;-78
2024/04/07 01:24:07;;;;;;;3.30;1.85;;;;;;;;;;4364881;32;317946;-78
2024/04/07 01:26:33;;;;;;;5.28;1.73;;;;;;;;;;4354129;32;317036;-78
2024/04/07 01:28:59;;;;;;;5.07;1.70;;;;;;;;;;4356822;32;316910;-78
2024/04/07 01:31:26;;;;;;;7.93;2.15;;;;;;;;;;4363228;32;317231;-78
2024/04/07 01:33:53;;;;;;;9.13;1.80;;;;;;;;;;4352253;32;317280;-79
2024/04/07 01:36:19;;;;;;;6.12;1.90;;;;;;;;;;4364259;32;317019;-79
2024/04/07 01:38:45;;;;;;;6.78;2.03;;;;;;;;;;4346890;32;317317;-79
2024/04/07 01:41:13;;;;;;;3.00;1.98;;;;;;;;;;4362957;32;317194;-79
2024/04/07 01:43:39;;;;;;;2.72;1.52;;;;;;;;;;4353417;32;349881;-79
2024/04/07 01:46:06;;;;;;;6.05;1.92;;;;;;;;;;4363524;32;324756;-79
2024/04/07 01:48:31;;;;;;;6.97;2.40;;;;;;;;;;4354069;32;317313;-79
2024/04/07 01:50:58;;;;;;;7.30;2.30;;;;;;;;;;4357829;32;317557;-78
2024/04/07 01:53:24;;;;;;;4.60;2.53;;;;;;;;;;4363797;32;317347;-78
2024/04/07 01:55:51;;;;;;;7.65;2.90;;;;;;;;;;4354296;32;317201;-78
2024/04/07 01:58:18;;;;;;;3.87;2.47;;;;;;;;;;4363454;32;316930;-78
2024/04/07 02:00:44;;;;;;;4.45;2.28;;;;;;;;;;4347043;32;317550;-79
2024/04/07 02:03:11;;;;;;;4.07;2.40;;;;;;;;;;4362755;32;317247;-78
2024/04/07 02:05:38;;;;;;;7.03;3.03;;;;;;;;;;4352449;32;316710;-79
2024/04/07 02:08:04;;;;;;;6.93;2.97;;;;;;;;;;4362590;32;317209;-79
2024/04/07 02:10:32;;;;;;;10.23;3.47;;;;;;;;;;4358893;32;317187;-79
2024/04/07 02:12:57;;;;;;;6.85;2.87;;;;;;;;;;4357413;32;318307;-79
2024/04/07 02:15:25;;;;;;;7.35;3.00;;;;;;;;;;4363830;32;317112;-79
2024/04/07 02:17:51;;;;;;;6.22;3.28;;;;;;;;;;4352768;32;317127;-79
2024/04/07 02:20:18;;;;;;;11.65;5.37;;;;;;;;;;4362573;32;317371;-79
2024/04/07 02:22:44;;;;;;;10.63;4.80;;;;;;;;;;4346998;32;318477;-79
2024/04/07 02:25:11;;;;;;;10.93;4.72;;;;;;;;;;4363530;32;317536;-79
2024/04/07 02:27:36;;;;;;;7.45;3.90;;;;;;;;;;4353593;32;317978;-79
2024/04/07 02:30:04;;;;;;;12.65;5.50;;;;;;;;;;4361424;32;317216;-79
2024/04/07 02:32:32;;;;;;;9.32;4.05;;;;;;;;;;4363011;32;318256;-79
2024/04/07 02:34:58;;;;;;;9.20;4.40;;;;;;;;;;4344247;32;417897;-78
2024/04/07 02:37:24;;;;;;;8.10;3.58;;;;;;;;;;4361621;32;317244;-78
2024/04/07 02:39:51;;;;;;;8.88;2.65;;;;;;;;;;4352298;32;317018;-79
2024/04/07 02:42:16;;;;;;;14.45;2.33;;;;;;;;;;4363370;32;317219;-78
2024/04/07 02:50:13;;;;;;;7.70;1.75;;;;;;;;;;4351939;32;386816;-79
2024/04/07 02:52:40;;;;;;;6.25;2.50;;;;;;;;;;4353470;32;317195;-79
2024/04/07 02:55:06;;;;;;;4.68;1.60;;;;;;;;;;4357187;32;317199;-78
2024/04/07 02:57:33;;;;;;;5.15;2.10;;;;;;;;;;4352429;32;317512;-79
2024/04/07 02:59:59;;;;;;;3.20;1.90;;;;;;;;;;4362738;32;317174;-79
2024/04/07 03:02:27;;;;;;;5.78;1.80;;;;;;;;;;4362506;32;317262;-79
2024/04/07 03:04:53;;;;;;;3.65;1.73;;;;;;;;;;4345063;32;317238;-79
2024/04/07 03:07:22;;;;;;;4.28;1.77;;;;;;;;;;4360920;32;340520;-78
2024/04/07 03:09:53;;;;;;;3.58;1.67;;;;;;;;;;4353190;32;317173;-78
2024/04/07 03:12:19;;;;;;;3.08;1.60;;;;;;;;;;4363296;32;317480;-79
2024/04/07 03:14:45;;;;;;;2.85;1.42;;;;;;;;;;4344218;32;317321;-79
2024/04/07 03:17:12;;;;;;;3.80;1.77;;;;;;;;;;4361990;32;317214;-78
2024/04/07 03:19:38;;;;;;;3.08;1.48;;;;;;;;;;4353230;32;316940;-78
2024/04/07 03:22:04;;;;;;;6.32;2.08;;;;;;;;;;4363135;32;317200;-78
2024/04/07 03:24:32;;;;;;;5.62;1.85;;;;;;;;;;4357395;32;317406;-78
2024/04/07 03:26:58;;;;;;;5.43;1.92;;;;;;;;;;4356101;32;316468;-80
2024/04/07 03:29:24;;;;;;;4.32;1.95;;;;;;;;;;4362153;32;317424;-81
2024/04/07 03:31:51;;;;;;;3.47;1.83;;;;;;;;;;4352092;32;317314;-78
2024/04/07 03:34:17;;;;;;;3.78;1.90;;;;;;;;;;4362964;32;317328;-78
2024/04/07 03:36:43;;;;;;;7.22;1.90;;;;;;;;;;4349142;32;317117;-78
2024/04/07 03:39:10;;;;;;;5.72;2.45;;;;;;;;;;4361067;32;317235;-78
2024/04/07 03:41:38;;;;;;;1.77;1.30;;;;;;;;;;4353209;32;316547;-78
2024/04/07 03:44:05;;;;;;;4.25;2.47;;;;;;;;;;4362736;32;317400;-78
2024/04/07 03:46:32;;;;;;;4.22;1.58;;;;;;;;;;4352469;32;317717;-78
2024/04/07 03:48:58;;;;;;;10.48;2.40;;;;;;;;;;4354888;32;322150;-78
2024/04/07 03:51:25;;;;;;;9.30;2.05;;;;;;;;;;4361304;32;352639;-79
2024/04/07 03:53:50;;;;;;;11.05;4.03;;;;;;;;;;4352953;32;317593;-79
2024/04/07 03:56:17;;;;;;;3.65;1.90;;;;;;;;;;4363193;32;318407;-79
2024/04/07 03:58:45;;;;;;;10.80;2.25;;;;;;;;;;4346507;32;316369;-78
2024/04/07 04:01:11;;;;;;;4.53;2.00;;;;;;;;;;4361652;32;346240;-78
2024/04/07 04:03:38;;;;;;;9.07;1.93;;;;;;;;;;4351392;32;317763;-78
2024/04/07 04:06:04;;;;;;;4.05;2.03;;;;;;;;;;4361856;32;317590;-78
2024/04/07 04:08:32;;;;;;;8.57;2.28;;;;;;;;;;4362589;32;317063;-78
2024/04/07 04:11:01;;;;;;;4.62;2.60;;;;;;;;;;4343032;32;417622;-78
2024/04/07 04:13:28;;;;;;;11.57;2.12;;;;;;;;;;4362846;32;316387;-79
2024/04/07 04:15:55;;;;;;;7.32;1.95;;;;;;;;;;4351802;32;318133;-79
2024/04/07 04:18:21;;;;;;;8.48;5.15;;;;;;;;;;4362624;32;317538;-79
2024/04/07 04:20:47;;;;;;;11.27;6.03;;;;;;;;;;4342713;32;317145;-78
2024/04/07 04:23:14;;;;;;;9.82;5.62;;;;;;;;;;4361256;32;318283;-79
2024/04/07 04:25:39;;;;;;;8.38;5.22;;;;;;;;;;4352875;32;317270;-79
2024/04/07 04:28:06;;;;;;;15.50;6.55;;;;;;;;;;4365542;32;317309;-79
2024/04/07 04:30:33;;;;;;;9.63;5.68;;;;;;;;;;4355331;32;318285;-78
2024/04/07 04:33:01;;;;;;;8.82;5.43;;;;;;;;;;4360237;32;317605;-78
2024/04/07 04:35:27;;;;;;;5.95;4.05;;;;;;;;;;4366939;32;318157;-78
2024/04/07 04:37:54;;;;;;;13.73;4.35;;;;;;;;;;4356667;32;316949;-78
2024/04/07 04:40:23;;;;;;;7.20;2.78;;;;;;;;;;4365293;32;318388;-79
2024/04/07 04:42:49;;;;;;;4.60;2.72;;;;;;;;;;4348779;32;316760;-79
2024/04/07 04:45:15;;;;;;;8.25;2.87;;;;;;;;;;4364204;32;317136;-79
2024/04/07 04:47:44;;;;;;;5.95;3.30;;;;;;;;;;4353673;32;317400;-77
2024/04/07 04:50:11;;;;;;;4.50;2.12;;;;;;;;;;4365431;32;317663;-79
2024/04/07 04:52:37;;;;;;;5.37;2.53;;;;;;;;;;4355065;32;317325;-77
2024/04/07 04:55:04;;;;;;;6.87;2.35;;;;;;;;;;4357504;32;318350;-79
2024/04/07 04:57:32;;;;;;;6.70;3.17;;;;;;;;;;4363586;32;317292;-79
2024/04/07 04:59:58;;;;;;;6.10;3.53;;;;;;;;;;4364778;32;317335;-78
2024/04/07 05:02:24;;;;;;;8.65;4.35;;;;;;;;;;4364794;32;317129;-78
2024/04/07 05:04:50;;;;;;;11.10;3.83;;;;;;;;;;4347039;32;336051;-78
2024/04/07 05:07:18;;;;;;;11.23;4.43;;;;;;;;;;4364336;32;321026;-79
2024/04/07 05:09:45;;;;;;;13.52;5.75;;;;;;;;;;4354621;32;318018;-78
2024/04/07 05:12:12;;;;;;;10.57;4.68;;;;;;;;;;4362755;32;318325;-79
2024/04/07 05:14:38;;;;;;;10.57;4.65;;;;;;;;;;4354291;32;318481;-79
2024/04/07 05:17:05;;;;;;;12.05;5.12;;;;;;;;;;4356604;32;318273;-79
2024/04/07 05:19:31;;;;;;;130.43;36.22;;;;;;;;;;4357579;32;318205;-78
2024/04/07 05:21:57;;;;;;;43.05;15.85;;;;;;;;;;4364131;32;320343;-78
2024/04/07 05:24:26;;;;;;;42.97;17.05;;;;;;;;;;4364736;32;319717;-79
2024/04/07 05:26:53;;;;;;;27.90;10.15;;;;;;;;;;4346539;32;319579;-78
2024/04/07 05:29:19;;;;;;;21.90;8.90;;;;;;;;;;4363024;32;319600;-79
2024/04/07 05:31:46;;;;;;;11.43;6.50;;;;;;;;;;4353402;32;318368;-79
2024/04/07 05:34:12;;;;;;;12.25;7.60;;;;;;;;;;4364259;32;318459;-78
2024/04/07 05:36:39;;;;;;;20.95;8.35;;;;;;;;;;4354650;32;318188;-78
2024/04/07 05:39:04;;;;;;;16.65;11.27;;;;;;;;;;4356535;32;318640;-78
2024/04/07 05:41:32;;;;;;;22.48;9.20;;;;;;;;;;4363095;32;319153;-78
2024/04/07 05:43:58;;;;;;;15.50;9.23;;;;;;;;;;4351362;32;418315;-78
2024/04/07 05:46:26;;;;;;;16.70;7.72;;;;;;;;;;4365206;32;321130;-78
2024/04/07 05:48:51;;;;;;;13.18;6.70;;;;;;;;;;4349284;32;318316;-78
2024/04/07 05:51:18;;;;;;;14.00;6.95;;;;;;;;;;4366145;32;318199;-79
2024/04/07 05:53:44;;;;;;;12.70;6.35;;;;;;;;;;4357445;32;318285;-78
2024/04/07 05:56:13;;;;;;;9.07;4.28;;;;;;;;;;4367326;32;318423;-78
2024/04/07 05:58:40;;;;;;;8.82;4.37;;;;;;;;;;4356792;32;317425;-78
2024/04/07 06:01:08;;;;;;;14.00;5.97;;;;;;;;;;4359902;32;328038;-78
2024/04/07 06:03:34;;;;;;;9.57;5.50;;;;;;;;;;4354138;32;318667;-79
2024/04/07 06:06:02;;;;;;;11.25;5.10;;;;;;;;;;4364649;32;317341;-79
2024/04/07 06:08:28;;;;;;;12.40;6.28;;;;;;;;;;4364679;32;318488;-79
2024/04/07 06:10:55;;;;;;;28.30;6.87;;;;;;;;;;4347514;32;318896;-79
2024/04/07 06:13:20;;;;;;;16.00;5.82;;;;;;;;;;4362008;32;318271;-79
2024/04/07 06:15:48;;;;;;;17.92;6.32;;;;;;;;;;4352680;32;317967;-79
2024/04/07 06:18:14;;;;;;;17.35;6.82;;;;;;;;;;4362614;32;319846;-79
2024/04/07 06:20:43;;;;;;;10.80;5.63;;;;;;;;;;4351357;32;351645;-79
2024/04/07 06:23:08;;;;;;;17.25;5.75;;;;;;;;;;4362645;32;318354;-79
2024/04/07 06:25:35;;;;;;;14.38;4.50;;;;;;;;;;4352558;32;318512;-79
2024/04/07 06:28:01;;;;;;;18.48;6.30;;;;;;;;;;4363508;32;318350;-79
2024/04/07 06:30:28;;;;;;;17.27;5.68;;;;;;;;;;4363350;32;318395;-78
2024/04/07 06:32:55;;;;;;;11.80;4.37;;;;;;;;;;4345894;32;318519;-78
2024/04/07 06:35:21;;;;;;;9.15;4.12;;;;;;;;;;4362309;32;318308;-78
2024/04/07 06:37:47;;;;;;;8.90;2.90;;;;;;;;;;4351682;32;354574;-78
2024/04/07 06:40:14;;;;;;;6.50;2.30;;;;;;;;;;4362178;32;325379;-78
2024/04/07 06:42:40;;;;;;;5.47;2.35;;;;;;;;;;4353409;32;317358;-78
2024/04/07 06:45:07;;;;;;;7.72;2.30;;;;;;;;;;4355846;32;345742;-78
2024/04/07 06:47:33;;;;;;;7.07;2.28;;;;;;;;;;4349051;32;340419;-78
2024/04/07 06:50:02;;;;;;;10.40;1.92;;;;;;;;;;4361026;32;342282;-78
2024/04/07 06:52:27;;;;;;;9.57;2.65;;;;;;;;;;4361983;32;317881;-78
2024/04/07 06:54:54;;;;;;;6.45;2.35;;;;;;;;;;4345875;32;317474;-78
2024/04/07 06:57:21;;;;;;;3.05;1.75;;;;;;;;;;4363244;32;317304;-78
2024/04/07 06:59:49;;;;;;;6.60;3.08;;;;;;;;;;4351727;32;317411;-78
2024/04/07 07:02:15;;;;;;;4.55;1.80;;;;;;;;;;4362052;32;359198;-79
2024/04/07 07:04:42;;;;;;;4.33;2.30;;;;;;;;;;4350775;32;332486;-79
2024/04/07 07:07:09;;;;;;;9.85;2.62;;;;;;;;;;4361609;32;317623;-78
2024/04/07 07:09:36;;;;;;;6.68;2.78;;;;;;;;;;4350297;32;316694;-79
2024/04/07 07:12:02;;;;;;;3.75;1.83;;;;;;;;;;4363666;32;317757;-78
2024/04/07 07:14:29;;;;;;;2.53;1.40;;;;;;;;;;4362623;32;316652;-78
2024/04/07 07:16:55;;;;;;;7.32;2.15;;;;;;;;;;4345294;32;323260;-78
2024/04/07 07:19:22;;;;;;;3.75;2.30;;;;;;;;;;4361823;32;354501;-79
2024/04/07 07:21:48;;;;;;;3.60;1.90;;;;;;;;;;4353590;32;317080;-79
2024/04/07 07:24:16;;;;;;;2.25;1.92;;;;;;;;;;4362979;32;317349;-78
2024/04/07 07:26:42;;;;;;;2.53;1.50;;;;;;;;;;4349919;32;317274;-78
2024/04/07 07:29:12;;;;;;;7.05;1.90;;;;;;;;;;4360576;32;317463;-78
2024/04/07 07:31:37;;;;;;;6.82;2.08;;;;;;;;;;4352178;32;317164;-78
2024/04/07 07:34:04;;;;;;;3.50;1.50;;;;;;;;;;4361513;32;317441;-78
2024/04/07 07:36:30;;;;;;;2.35;1.42;;;;;;;;;;4362632;32;317287;-78
2024/04/07 07:38:57;;;;;;;4.57;2.12;;;;;;;;;;4343602;32;373053;-78
2024/04/07 07:41:24;;;;;;;4.85;1.85;;;;;;;;;;4361889;32;316906;-78
2024/04/07 07:43:51;;;;;;;11.93;2.05;;;;;;;;;;4352282;32;336700;-78
2024/04/07 07:46:17;;;;;;;6.87;1.92;;;;;;;;;;4362250;32;318628;-78
2024/04/07 07:48:44;;;;;;;4.45;1.67;;;;;;;;;;4349350;32;317274;-78
2024/04/07 07:51:10;;;;;;;4.97;2.35;;;;;;;;;;4359837;32;317254;-78
2024/04/07 07:53:37;;;;;;;9.18;2.60;;;;;;;;;;4351451;32;317087;-79
2024/04/07 07:56:03;;;;;;;7.93;2.55;;;;;;;;;;4361453;32;316621;-78
2024/04/07 07:58:31;;;;;;;6.43;1.90;;;;;;;;;;4362754;32;317508;-78
2024/04/07 08:00:57;;;;;;;3.78;1.80;;;;;;;;;;4344681;32;417922;-80
2024/04/07 08:03:24;;;;;;;5.50;1.70;;;;;;;;;;4365711;32;317552;-79
2024/04/07 08:05:50;;;;;;;2.95;1.52;;;;;;;;;;4353622;32;317574;-78
2024/04/07 08:08:17;;;;;;;6.45;1.60;;;;;;;;;;4365175;32;317105;-78
2024/04/07 08:10:43;;;;;;;2.58;1.67;;;;;;;;;;4351096;32;317357;-78
2024/04/07 08:13:09;;;;;;;4.25;1.55;;;;;;;;;;4347053;32;317727;-78
2024/04/07 08:15:37;;;;;;;3.95;1.75;;;;;;;;;;4363736;32;317032;-78
2024/04/07 08:18:04;;;;;;;4.68;2.12;;;;;;;;;;4355847;32;317073;-78
2024/04/07 08:20:31;;;;;;;9.93;1.85;;;;;;;;;;4363474;32;317564;-78
2024/04/07 08:22:57;;;;;;;4.40;1.73;;;;;;;;;;4355529;32;317157;-79
2024/04/07 08:25:26;;;;;;;5.18;1.70;;;;;;;;;;4358247;32;317394;-79
2024/04/07 08:27:52;;;;;;;2.15;1.45;;;;;;;;;;4364634;32;317175;-79
2024/04/07 08:30:19;;;;;;;9.57;4.55;;;;;;;;;;4354321;32;317228;-78
2024/04/07 08:32:47;;;;;;;3.78;1.52;;;;;;;;;;4365368;32;317185;-78
2024/04/07 08:35:13;;;;;;;4.05;2.08;;;;;;;;;;4349061;32;317166;-78
2024/04/07 08:37:40;;;;;;;3.08;1.90;;;;;;;;;;4364686;32;317028;-78
2024/04/07 08:40:07;;;;;;;3.83;1.70;;;;;;;;;;4356108;32;317885;-79
2024/04/07 08:42:34;;;;;;;6.95;2.40;;;;;;;;;;4365631;32;317624;-78
2024/04/07 08:45:01;;;;;;;1.90;1.53;;;;;;;;;;4353457;32;349451;-78
2024/04/07 08:47:29;;;;;;;4.53;2.33;;;;;;;;;;4359476;32;317085;-77
2024/04/07 08:49:57;;;;;;;3.62;2.35;;;;;;;;;;4355013;32;316537;-78
2024/04/07 08:52:24;;;;;;;3.28;1.70;;;;;;;;;;4365437;32;317229;-78
2024/04/07 08:54:50;;;;;;;6.93;3.58;;;;;;;;;;4365708;32;317007;-78
2024/04/07 08:57:17;;;;;;;6.25;2.33;;;;;;;;;;4349341;32;316313;-78
2024/04/07 08:59:47;;;;;;;4.87;1.45;;;;;;;;;;4364773;32;317196;-78
2024/04/07 09:02:15;;;;;;;8.55;1.95;;;;;;;;;;4368090;32;316909;-77
2024/04/07 09:04:41;;;;;;;6.47;1.75;;;;;;;;;;4382486;32;315111;-78
2024/04/07 09:07:11;;;;;;;4.20;2.17;;;;;;;;;;4367352;32;316174;-78
2024/04/07 09:09:37;;;;;;;6.47;2.50;;;;;;;;;;4383269;32;315909;-78
2024/04/07 09:12:05;;;;;;;6.07;1.62;;;;;;;;;;4372519;32;315700;-77
2024/04/07 09:14:33;;;;;;;4.05;1.55;;;;;;;;;;4376169;32;316892;-77
2024/04/07 09:17:04;;;;;;;4.25;1.70;;;;;;;;;;4355276;32;317328;-77
2024/04/07 09:19:31;;;;;;;7.20;1.87;;;;;;;;;;4360347;32;317174;-79
2024/04/07 09:21:58;;;;;;;3.65;1.75;;;;;;;;;;4355622;32;317448;-79
2024/04/07 09:24:26;;;;;;;4.32;2.72;;;;;;;;;;4363373;32;317593;-78
2024/04/07 09:26:53;;;;;;;3.95;1.98;;;;;;;;;;4364546;32;317294;-78
2024/04/07 09:29:18;;;;;;;3.35;1.65;;;;;;;;;;4347244;32;317269;-78
2024/04/07 09:31:46;;;;;;;2.28;1.42;;;;;;;;;;4363929;32;317153;-78
2024/04/07 09:34:11;;;;;;;4.32;1.60;;;;;;;;;;4353304;32;317083;-78
2024/04/07 09:36:38;;;;;;;2.78;1.60;;;;;;;;;;4362928;32;316606;-78
2024/04/07 09:39:04;;;;;;;3.95;2.00;;;;;;;;;;4354380;32;317195;-78
2024/04/07 09:41:34;;;;;;;2.53;1.58;;;;;;;;;;4358291;32;317267;-79
2024/04/07 09:44:04;;;;;;;3.40;1.90;;;;;;;;;;4353235;32;325061;-79
2024/04/07 09:46:37;;;;;;;6.07;2.37;;;;;;;;;;4362849;32;317500;-79
2024/04/07 09:49:07;;;;;;;4.05;2.15;;;;;;;;;;4353582;32;317421;-79
2024/04/07 09:51:39;;;;;;;4.22;1.52;;;;;;;;;;4364452;32;317579;-79
2024/04/07 09:54:14;;;;;;;4.90;2.10;;;;;;;;;;4353139;32;317020;-79
2024/04/07 09:56:42;;;;;;;3.37;1.70;;;;;;;;;;4364082;32;317378;-79
2024/04/07 09:59:09;;;;;;;3.55;1.85;;;;;;;;;;4346996;32;317299;-79
2024/04/07 10:01:36;;;;;;;2.17;1.40;;;;;;;;;;4364817;32;317034;-78
2024/04/07 10:04:03;;;;;;;2.95;1.58;;;;;;;;;;4353914;32;316836;-79
2024/04/07 10:06:31;;;;;;;7.18;2.00;;;;;;;;;;4362204;32;317202;-78
2024/04/07 10:08:58;;;;;;;2.08;1.30;;;;;;;;;;4349328;32;317418;-78
2024/04/07 10:11:25;;;;;;;4.00;2.28;;;;;;;;;;4355720;32;317431;-78
2024/04/07 10:13:52;;;;;;;4.72;1.50;;;;;;;;;;4363573;32;317209;-78
2024/04/07 10:16:19;;;;;;;2.53;1.30;;;;;;;;;;4353341;32;317134;-79
2024/04/07 10:18:47;;;;;;;2.25;1.20;;;;;;;;;;4363037;32;317455;-78
2024/04/07 10:21:14;;;;;;;4.47;1.40;;;;;;;;;;4346989;32;317116;-78
2024/04/07 10:23:40;;;;;;;12.32;1.65;;;;;;;;;;4365879;32;317436;-78
2024/04/07 10:26:08;;;;;;;11.00;1.33;;;;;;;;;;4355735;32;336415;-78
2024/04/07 10:28:47;;;;;;;2.05;1.45;;;;;;;;;;4363988;32;318361;-78
2024/04/07 10:31:22;;;;;;;2.20;1.35;;;;;;;;;;4346329;32;338992;-78
2024/04/07 10:33:48;;;;;;;2.90;1.20;;;;;;;;;;4363302;32;318075;-78
2024/04/07 10:36:17;;;;;;;6.10;1.27;;;;;;;;;;4352909;32;317597;-78
2024/04/07 10:38:44;;;;;;;7.53;1.30;;;;;;;;;;4363159;32;316673;-78
2024/04/07 10:41:16;;;;;;;4.12;1.40;;;;;;;;;;4345316;32;334907;-78
2024/04/07 10:43:43;;;;;;;4.10;1.00;;;;;;;;;;4362752;32;317248;-78
2024/04/07 10:46:10;;;;;;;2.95;1.27;;;;;;;;;;4353416;32;317329;-78
2024/04/07 10:48:37;;;;;;;6.28;2.25;;;;;;;;;;4362171;32;317293;-78
2024/04/07 10:51:06;;;;;;;2.92;1.12;;;;;;;;;;4352036;32;317491;-78
2024/04/07 10:53:32;;;;;;;3.30;1.02;;;;;;;;;;4359627;32;317415;-78
2024/04/07 10:55:58;;;;;;;3.47;1.40;;;;;;;;;;4353150;32;317322;-78
2024/04/07 10:58:24;;;;;;;5.45;1.25;;;;;;;;;;4360950;32;341553;-79
2024/04/07 11:00:51;;;;;;;2.05;1.00;;;;;;;;;;4361389;32;317340;-79
2024/04/07 11:03:16;;;;;;;1.92;1.00;;;;;;;;;;4346033;32;317237;-79
2024/04/07 11:05:45;;;;;;;1.67;0.82;;;;;;;;;;4363044;32;317283;-79
2024/04/07 11:08:11;;;;;;;1.37;0.90;;;;;;;;;;4351850;32;317000;-79
2024/04/07 11:10:38;;;;;;;2.53;1.10;;;;;;;;;;4362821;32;317249;-79
2024/04/07 11:13:06;;;;;;;2.42;1.10;;;;;;;;;;4352760;32;317146;-79
2024/04/07 11:15:33;;;;;;;2.15;1.12;;;;;;;;;;4358558;32;317290;-79
2024/04/07 11:17:59;;;;;;;4.07;1.55;;;;;;;;;;4352324;32;317398;-79
2024/04/07 11:20:25;;;;;;;4.60;1.73;;;;;;;;;;4361981;32;316641;-79
2024/04/07 11:22:53;;;;;;;4.43;1.48;;;;;;;;;;4361679;32;316763;-78
2024/04/07 11:25:20;;;;;;;7.32;1.67;;;;;;;;;;4346663;32;317403;-79
2024/04/07 11:27:46;;;;;;;2.53;1.00;;;;;;;;;;4363227;32;323938;-79
2024/04/07 11:30:14;;;;;;;1.80;1.20;;;;;;;;;;4352743;32;317279;-79
2024/04/07 11:32:40;;;;;;;2.35;1.17;;;;;;;;;;4363058;32;317852;-79
2024/04/07 11:35:08;;;;;;;3.20;1.15;;;;;;;;;;4351787;32;316818;-79
2024/04/07 11:37:34;;;;;;;3.22;0.85;;;;;;;;;;4353542;32;317382;-79
2024/04/07 11:40:02;;;;;;;3.22;1.00;;;;;;;;;;4340640;32;317384;-79
2024/04/07 11:42:27;;;;;;;13.38;2.30;;;;;;;;;;4351182;32;317402;-78
2024/04/07 11:44:54;;;;;;;3.67;2.22;;;;;;;;;;4349676;32;317727;-78
2024/04/07 11:47:21;;;;;;;6.78;1.75;;;;;;;;;;4331894;32;416313;-79
2024/04/07 11:49:49;;;;;;;2.67;1.27;;;;;;;;;;4350773;32;317485;-77
2024/04/07 11:52:14;;;;;;;13.15;1.70;;;;;;;;;;4339908;32;317450;-77
2024/04/07 11:54:41;;;;;;;1.40;0.90;;;;;;;;;;4349309;32;318240;-78
2024/04/07 11:57:08;;;;;;;3.20;1.08;;;;;;;;;;4337677;32;317874;-78
2024/04/07 11:59:35;;;;;;;2.08;0.80;;;;;;;;;;4360708;32;317210;-78
2024/04/07 12:02:01;;;;;;;4.18;2.12;;;;;;;;;;4354878;32;317302;-78
2024/04/07 12:04:28;;;;;;;10.77;2.20;;;;;;;;;;4365384;32;317191;-78
2024/04/07 12:06:53;;;;;;;5.62;1.35;;;;;;;;;;4363720;32;318547;-78
2024/04/07 12:09:21;;;;;;;8.52;1.98;;;;;;;;;;4345421;32;374227;-77
2024/04/07 12:11:47;;;;;;;4.85;1.40;;;;;;;;;;4365408;32;317069;-78
2024/04/07 12:14:15;;;;;;;3.03;1.00;;;;;;;;;;4355351;32;332454;-78
2024/04/07 12:16:42;;;;;;;1.83;1.20;;;;;;;;;;4365083;32;317179;-78
2024/04/07 12:19:09;;;;;;;2.50;1.20;;;;;;;;;;4349170;32;317218;-78
2024/04/07 12:21:34;;;;;;;3.42;1.85;;;;;;;;;;4364506;32;317363;-77
2024/04/07 12:24:01;;;;;;;12.15;1.80;;;;;;;;;;4354039;32;317336;-78
2024/04/07 12:26:27;;;;;;;4.37;1.20;;;;;;;;;;4365132;32;319057;-78
2024/04/07 12:28:54;;;;;;;3.05;0.90;;;;;;;;;;4365080;32;317130;-78
2024/04/07 12:31:21;;;;;;;5.25;1.35;;;;;;;;;;4344742;32;416524;-78
2024/04/07 12:33:49;;;;;;;10.52;2.05;;;;;;;;;;4363675;32;317430;-78
2024/04/07 12:36:15;;;;;;;8.98;1.48;;;;;;;;;;4354921;32;318206;-77
2024/04/07 12:38:41;;;;;;;8.10;1.02;;;;;;;;;;4365386;32;317232;-77
2024/04/07 12:41:07;;;;;;;9.35;1.30;;;;;;;;;;4345836;32;357753;-77
2024/04/07 12:43:34;;;;;;;5.97;1.12;;;;;;;;;;4364040;32;317949;-77
2024/04/07 12:46:00;;;;;;;3.08;1.00;;;;;;;;;;4355014;32;317370;-79
2024/04/07 12:48:28;;;;;;;1.17;0.80;;;;;;;;;;4363429;32;317425;-77
2024/04/07 12:50:53;;;;;;;7.22;1.37;;;;;;;;;;4364599;32;317450;-77
2024/04/07 12:53:20;;;;;;;2.83;1.00;;;;;;;;;;4345834;32;361527;-77
2024/04/07 12:55:46;;;;;;;7.28;1.40;;;;;;;;;;4363170;32;317052;-77
2024/04/07 12:58:13;;;;;;;2.97;1.73;;;;;;;;;;4354795;32;317242;-77
2024/04/07 13:00:40;;;;;;;8.93;1.62;;;;;;;;;;4364894;32;317289;-78
2024/04/07 13:03:07;;;;;;;7.15;1.42;;;;;;;;;;4353394;32;317168;-78
2024/04/07 13:05:36;;;;;;;6.12;1.65;;;;;;;;;;4362819;32;317175;-79
2024/04/07 13:08:03;;;;;;;4.30;1.48;;;;;;;;;;4355159;32;317160;-78
2024/04/07 13:10:29;;;;;;;6.35;1.60;;;;;;;;;;4363653;32;317328;-78
2024/04/07 13:12:56;;;;;;;7.90;1.67;;;;;;;;;;4354972;32;317433;-78
2024/04/07 13:15:22;;;;;;;3.47;1.60;;;;;;;;;;4357255;32;317112;-78
2024/04/07 13:17:49;;;;;;;11.07;1.77;;;;;;;;;;4365086;32;317249;-79
2024/04/07 13:20:15;;;;;;;4.20;1.70;;;;;;;;;;4354618;32;318535;-77
2024/04/07 13:22:44;;;;;;;3.70;1.62;;;;;;;;;;4365133;32;317588;-77
2024/04/07 13:25:10;;;;;;;2.85;1.27;;;;;;;;;;4344863;32;317231;-78
2024/04/07 13:27:36;;;;;;;5.93;1.48;;;;;;;;;;4361267;32;317048;-77
2024/04/07 13:30:03;;;;;;;11.90;1.40;;;;;;;;;;4351084;32;325909;-77
2024/04/07 13:32:30;;;;;;;11.32;1.70;;;;;;;;;;4361376;32;318336;-77
2024/04/07 13:34:55;;;;;;;3.15;1.60;;;;;;;;;;4349896;32;318381;-77
2024/04/07 13:37:22;;;;;;;9.90;1.62;;;;;;;;;;4355471;32;318320;-79
2024/04/07 13:39:50;;;;;;;5.50;1.15;;;;;;;;;;4358404;32;316676;-79
2024/04/07 13:42:16;;;;;;;2.28;0.90;;;;;;;;;;4351825;32;317223;-80
2024/04/07 13:44:42;;;;;;;5.80;2.83;;;;;;;;;;4355020;32;317316;-78
2024/04/07 13:47:10;;;;;;;7.60;5.78;;;;;;;;;;4352409;32;317408;-78
2024/04/07 13:49:36;;;;;;;4.60;2.80;;;;;;;;;;4363013;32;317529;-78
2024/04/07 13:52:04;;;;;;;7.55;2.05;;;;;;;;;;4349508;32;317012;-78
2024/04/07 13:54:30;;;;;;;1.90;1.30;;;;;;;;;;4330934;32;317393;-77
2024/04/07 13:56:58;;;;;;;3.08;1.10;;;;;;;;;;4350981;32;317148;-77
2024/04/07 13:59:24;;;;;;;9.32;1.27;;;;;;;;;;4353767;32;316600;-77
2024/04/07 14:01:50;;;;;;;3.92;2.95;;;;;;;;;;4363238;32;317314;-77
2024/04/07 14:04:16;;;;;;;7.65;5.55;;;;;;;;;;4352701;32;317206;-76
2024/04/07 14:06:43;;;;;;;15.18;7.53;;;;;;;;;;4353306;32;343261;-79
2024/04/07 14:09:09;;;;;;;9.48;1.80;;;;;;;;;;4352701;32;318079;-77
2024/04/07 14:11:39;;;;;;;2.33;1.60;;;;;;;;;;4348374;32;317304;-79
2024/04/07 14:14:08;;;;;;;3.08;1.25;;;;;;;;;;4346558;32;317010;-80
2024/04/07 14:16:35;;;;;;;1.77;1.48;;;;;;;;;;4328781;32;416644;-76
2024/04/07 14:19:02;;;;;;;1.33;0.80;;;;;;;;;;4349889;32;316287;-82
2024/04/07 14:21:28;;;;;;;1.83;0.70;;;;;;;;;;4342080;32;317165;-80
2024/04/07 14:23:54;;;;;;;6.07;1.35;;;;;;;;;;4351966;32;343406;-81
2024/04/07 14:26:21;;;;;;;4.87;1.23;;;;;;;;;;4336836;32;317473;-80
2024/04/07 14:28:47;;;;;;;1.35;0.93;;;;;;;;;;4351398;32;317666;-80
2024/04/07 14:31:15;;;;;;;6.90;1.48;;;;;;;;;;4342063;32;316618;-80